Time;durP1;ratioP1;P1;durP2;ratioP2;P2;SDS_P1;SDS_P2;PMS_P1;PMS_P2;Temp;Humidity;BMP_temperature;BMP_pressure;BME280_temperature;BME280_humidity;BME280_pressure;Samples;Min_cycle;Max_cycle;Signal;HPM_P1;HPM_P2
2022/12/24 00:01:07;;;;;;;16.48;11.70;;;9.40;99.90;;;;;;5073764;28;20056;-78
2022/12/24 00:03:35;;;;;;;16.42;11.00;;;9.40;99.90;;;;;;5080765;28;20020;-78
2022/12/24 00:06:16;;;;;;;17.50;11.90;;;9.30;99.90;;;;;;5093662;28;20054;-78
2022/12/24 00:08:41;;;;;;;17.20;10.82;;;9.30;99.90;;;;;;5093956;28;20024;-78
2022/12/24 00:11:07;;;;;;;14.55;10.52;;;9.20;99.90;;;;;;5093519;28;20478;-78
2022/12/24 00:13:33;;;;;;;13.63;9.75;;;9.10;99.90;;;;;;5093561;28;20367;-78
2022/12/24 00:15:59;;;;;;;15.05;10.38;;;9.20;99.90;;;;;;5094057;28;20496;-78
2022/12/24 00:18:25;;;;;;;15.32;9.88;;;9.10;99.90;;;;;;5093863;28;20093;-78
2022/12/24 00:20:51;;;;;;;16.08;10.27;;;9.10;99.90;;;;;;5092849;28;20020;-78
2022/12/24 00:23:18;;;;;;;13.32;9.95;;;9.10;99.90;;;;;;5073461;28;20023;-78
2022/12/24 00:25:43;;;;;;;12.77;8.88;;;9.10;99.90;;;;;;5073196;28;20031;-78
2022/12/24 00:28:09;;;;;;;13.80;9.35;;;9.10;99.90;;;;;;5072865;28;20048;-78
2022/12/24 00:30:37;;;;;;;12.27;8.73;;;9.10;99.90;;;;;;5073417;28;20031;-78
2022/12/24 00:33:04;;;;;;;12.18;8.77;;;9.10;99.90;;;;;;5073079;28;20508;-78
2022/12/24 00:35:32;;;;;;;12.65;7.90;;;9.10;99.90;;;;;;5073166;28;20024;-78
2022/12/24 00:37:57;;;;;;;13.68;8.40;;;9.00;99.90;;;;;;5072921;28;20103;-78
2022/12/24 00:40:23;;;;;;;10.60;7.82;;;9.00;99.90;;;;;;5073132;28;20108;-78
2022/12/24 00:42:49;;;;;;;14.00;8.43;;;9.00;99.90;;;;;;5072201;28;20024;-78
2022/12/24 00:45:14;;;;;;;9.75;7.10;;;8.80;99.90;;;;;;5073354;28;20028;-78
2022/12/24 00:47:40;;;;;;;9.98;7.72;;;8.90;99.90;;;;;;5072788;28;20020;-78
2022/12/24 00:50:07;;;;;;;11.80;8.13;;;9.00;99.90;;;;;;5072703;28;20028;-78
2022/12/24 00:52:32;;;;;;;9.52;7.32;;;9.00;99.90;;;;;;5073117;28;20020;-78
2022/12/24 00:54:58;;;;;;;9.80;7.20;;;8.90;99.90;;;;;;5072930;28;20530;-78
2022/12/24 00:57:24;;;;;;;10.50;7.22;;;8.90;99.90;;;;;;5072522;28;20535;-78
2022/12/24 00:59:49;;;;;;;10.82;7.85;;;8.80;99.90;;;;;;5072938;28;20386;-78
2022/12/24 01:02:15;;;;;;;11.52;7.85;;;8.80;99.90;;;;;;5072614;28;20105;-78
2022/12/24 01:07:25;;;;;;;11.15;7.55;;;8.80;99.90;;;;;;5092947;28;20488;-78
2022/12/24 01:09:50;;;;;;;9.45;7.10;;;8.80;99.90;;;;;;5092848;28;20103;-78
2022/12/24 01:12:16;;;;;;;10.75;7.05;;;8.80;99.90;;;;;;5092039;28;20519;-78
2022/12/24 01:14:42;;;;;;;9.85;7.32;;;8.80;99.90;;;;;;5092959;28;20479;-78
2022/12/24 01:17:08;;;;;;;10.80;7.85;;;8.90;99.90;;;;;;5092683;28;20020;-78
2022/12/24 01:19:33;;;;;;;10.05;7.40;;;8.70;99.90;;;;;;5092505;28;20036;-78
2022/12/24 01:21:59;;;;;;;11.93;7.70;;;8.40;99.90;;;;;;5082373;28;20017;-78
2022/12/24 01:24:25;;;;;;;8.63;6.97;;;8.40;99.90;;;;;;5072625;28;20458;-78
2022/12/24 01:26:50;;;;;;;11.02;7.28;;;8.50;99.90;;;;;;5071787;28;20050;-78
2022/12/24 01:29:16;;;;;;;10.50;7.25;;;8.60;99.90;;;;;;5072342;28;20078;-78
2022/12/24 01:31:43;;;;;;;9.88;6.82;;;8.60;99.90;;;;;;5072165;28;20529;-78
2022/12/24 01:34:09;;;;;;;10.88;7.03;;;8.70;99.90;;;;;;5071872;28;20023;-78
2022/12/24 01:36:35;;;;;;;9.70;7.20;;;8.70;99.90;;;;;;5072478;28;20355;-78
2022/12/24 01:39:01;;;;;;;7.05;5.80;;;8.70;99.90;;;;;;5072083;28;20028;-78
2022/12/24 01:44:25;;;;;;;8.38;6.30;;;8.80;99.90;;;;;;5072373;28;20032;-78
2022/12/24 01:47:05;;;;;;;8.07;6.68;;;8.80;99.90;;;;;;5072176;28;20029;-78
2022/12/24 01:49:32;;;;;;;10.27;6.60;;;8.90;99.90;;;;;;5071910;28;20035;-78
2022/12/24 01:52:02;;;;;;;8.80;6.25;;;8.80;99.90;;;;;;5072027;28;20021;-78
2022/12/24 01:54:34;;;;;;;8.68;5.80;;;8.80;99.90;;;;;;5072299;28;20039;-78
2022/12/24 01:57:28;;;;;;;9.15;5.82;;;8.80;99.90;;;;;;5071538;28;20027;-78
2022/12/24 01:59:58;;;;;;;8.27;5.07;;;8.70;99.90;;;;;;5071557;28;20040;-78
2022/12/24 02:02:26;;;;;;;9.93;6.47;;;8.80;99.90;;;;;;5074727;28;20103;-78
2022/12/24 02:05:17;;;;;;;8.63;6.25;;;8.70;99.90;;;;;;5093964;28;20027;-78
2022/12/24 02:07:43;;;;;;;8.20;5.85;;;8.60;99.90;;;;;;5096061;28;20109;-78
2022/12/24 02:10:12;;;;;;;10.23;6.22;;;8.60;99.90;;;;;;5096067;28;20024;-78
2022/12/24 02:12:39;;;;;;;6.45;5.00;;;8.50;99.90;;;;;;5095765;28;20024;-78
2022/12/24 02:15:08;;;;;;;6.32;5.07;;;8.60;99.90;;;;;;5096327;28;20039;-78
2022/12/24 02:17:51;;;;;;;9.00;5.88;;;8.60;99.90;;;;;;5095956;28;20020;-78
2022/12/24 02:20:45;;;;;;;8.13;5.50;;;8.50;99.90;;;;;;5095986;28;20028;-78
2022/12/24 02:23:36;;;;;;;9.90;5.45;;;8.20;99.90;;;;;;5075856;28;20094;-78
2022/12/24 02:26:20;;;;;;;;;;;8.40;99.90;;;;;;5075818;28;20027;-78
2022/12/24 02:29:01;;;;;;;8.43;5.43;;;8.50;99.90;;;;;;5075441;28;19927;-78
2022/12/24 02:31:38;;;;;;;6.03;4.85;;;8.40;99.90;;;;;;5075436;28;20029;-78
2022/12/24 02:34:11;;;;;;;7.15;5.47;;;8.50;99.90;;;;;;5075351;28;20025;-78
2022/12/24 02:36:50;;;;;;;6.57;5.10;;;8.40;99.90;;;;;;5075494;28;20020;-78
2022/12/24 02:39:26;;;;;;;6.78;5.25;;;8.40;99.90;;;;;;5055588;28;20028;-78
2022/12/24 02:42:06;;;;;;;7.07;5.10;;;8.40;99.90;;;;;;5055004;28;20057;-78
2022/12/24 02:44:41;;;;;;;6.97;5.05;;;8.30;99.90;;;;;;5055482;28;20017;-78
2022/12/24 02:47:08;;;;;;;7.50;5.00;;;8.30;99.90;;;;;;5055273;28;20032;-78
2022/12/24 02:49:35;;;;;;;7.65;5.30;;;8.30;99.90;;;;;;5055298;28;20031;-78
2022/12/24 02:52:01;;;;;;;5.75;4.80;;;8.30;99.90;;;;;;5055022;28;20513;-78
2022/12/24 02:54:28;;;;;;;6.47;5.05;;;8.30;99.90;;;;;;5055124;28;20021;-78
2022/12/24 02:57:07;;;;;;;7.10;5.10;;;8.30;99.90;;;;;;5057860;28;20025;-78
2022/12/24 02:59:58;;;;;;;8.70;4.95;;;8.20;99.90;;;;;;5074906;28;20024;-78
2022/12/24 03:02:37;;;;;;;7.13;5.07;;;8.20;99.90;;;;;;5074989;28;20032;-78
2022/12/24 03:05:21;;;;;;;6.78;4.65;;;8.20;99.90;;;;;;5094174;28;20059;-78
2022/12/24 03:08:14;;;;;;;6.07;4.68;;;8.20;99.90;;;;;;5095114;28;20034;-78
2022/12/24 03:10:56;;;;;;;5.65;4.68;;;8.20;99.90;;;;;;5094903;28;20064;-78
2022/12/24 03:13:23;;;;;;;5.90;4.75;;;8.10;99.90;;;;;;5093530;28;20024;-78
2022/12/24 03:15:51;;;;;;;6.25;4.40;;;8.00;99.90;;;;;;5094656;28;20020;-78
2022/12/24 03:18:21;;;;;;;6.55;4.85;;;8.00;99.90;;;;;;5094728;28;20032;-78
2022/12/24 03:20:56;;;;;;;5.82;4.13;;;8.10;99.90;;;;;;5094799;28;20023;-78
2022/12/24 03:23:22;;;;;;;5.95;4.50;;;8.00;99.90;;;;;;5074661;28;20036;-78
2022/12/24 03:25:48;;;;;;;7.18;4.65;;;8.00;99.90;;;;;;5074499;28;20028;-78
2022/12/24 03:28:17;;;;;;;6.28;4.60;;;8.00;99.90;;;;;;5074235;28;20045;-78
2022/12/24 03:30:45;;;;;;;6.68;4.72;;;7.90;99.90;;;;;;5074100;28;20047;-78
2022/12/24 03:33:12;;;;;;;6.68;4.22;;;7.90;99.90;;;;;;5074376;28;20017;-78
2022/12/24 03:35:38;;;;;;;4.40;3.92;;;7.80;99.90;;;;;;5074542;28;20073;-78
2022/12/24 03:38:04;;;;;;;4.72;3.83;;;7.70;99.90;;;;;;5085124;28;20099;-78
2022/12/24 03:40:30;;;;;;;5.72;4.68;;;7.80;99.90;;;;;;5094264;28;20111;-78
2022/12/24 03:42:56;;;;;;;5.03;3.47;;;7.70;99.90;;;;;;5094287;28;20024;-78
2022/12/24 03:45:22;;;;;;;5.82;4.15;;;7.60;99.90;;;;;;5094266;28;20086;-78
2022/12/24 03:47:48;;;;;;;5.85;4.28;;;7.70;99.90;;;;;;5094316;28;20032;-78
2022/12/24 03:50:14;;;;;;;4.90;4.05;;;7.70;99.90;;;;;;5094359;28;20054;-78
2022/12/24 03:52:39;;;;;;;4.90;3.67;;;7.70;99.90;;;;;;5094458;28;20024;-78
2022/12/24 03:55:05;;;;;;;5.95;4.13;;;7.60;99.90;;;;;;5094387;28;20043;-78
2022/12/24 03:57:31;;;;;;;5.03;3.70;;;7.60;99.90;;;;;;5085764;28;20040;-78
2022/12/24 03:59:57;;;;;;;6.78;4.07;;;7.60;99.90;;;;;;5073642;28;20397;-78
2022/12/24 04:02:22;;;;;;;6.60;4.18;;;7.70;99.90;;;;;;5073974;28;20497;-78
2022/12/24 04:04:48;;;;;;;5.85;3.85;;;7.60;99.90;;;;;;5091204;28;20418;-78
2022/12/24 04:07:14;;;;;;;4.30;3.90;;;7.60;99.90;;;;;;5094109;28;20035;-78
2022/12/24 04:09:40;;;;;;;5.85;4.25;;;7.60;99.90;;;;;;5093815;28;20036;-78
2022/12/24 04:12:06;;;;;;;5.38;4.22;;;7.60;99.90;;;;;;5093672;28;20103;-78
2022/12/24 04:14:32;;;;;;;5.28;4.20;;;7.60;99.90;;;;;;5093657;28;20027;-78
2022/12/24 04:16:58;;;;;;;5.78;4.10;;;7.60;99.90;;;;;;5093768;28;20025;-78
2022/12/24 04:19:23;;;;;;;6.00;3.88;;;7.60;99.90;;;;;;5093988;28;20423;-78
2022/12/24 04:21:49;;;;;;;6.25;3.97;;;7.60;99.90;;;;;;5084847;28;20508;-78
2022/12/24 04:24:15;;;;;;;4.72;3.90;;;7.60;99.90;;;;;;5073280;28;20070;-78
2022/12/24 04:26:41;;;;;;;7.40;4.22;;;7.50;99.90;;;;;;5072953;28;20521;-78
2022/12/24 04:29:06;;;;;;;5.50;3.80;;;7.40;99.90;;;;;;5073174;28;20040;-78
2022/12/24 04:31:32;;;;;;;5.03;3.78;;;7.50;99.90;;;;;;5073227;28;20017;-78
2022/12/24 04:33:58;;;;;;;4.03;3.30;;;7.40;99.90;;;;;;5073045;28;20037;-78
2022/12/24 04:36:23;;;;;;;6.15;3.65;;;7.60;99.90;;;;;;5073143;28;20016;-78
2022/12/24 04:38:49;;;;;;;4.40;4.00;;;7.60;99.90;;;;;;5071859;28;20025;-77
2022/12/24 04:41:16;;;;;;;4.88;4.05;;;7.50;99.90;;;;;;5073009;28;20024;-78
2022/12/24 04:43:42;;;;;;;3.78;3.38;;;7.50;99.90;;;;;;5072392;28;20025;-78
2022/12/24 04:46:17;;;;;;;4.93;3.58;;;7.50;99.90;;;;;;5072853;28;20036;-78
2022/12/24 04:48:44;;;;;;;4.45;3.33;;;7.50;99.90;;;;;;5072882;28;20024;-78
2022/12/24 04:51:11;;;;;;;4.18;3.45;;;7.40;99.90;;;;;;5072766;28;20546;-78
2022/12/24 04:53:38;;;;;;;5.10;3.88;;;7.40;99.90;;;;;;5072885;28;20021;-78
2022/12/24 04:56:10;;;;;;;6.45;4.10;;;7.40;99.90;;;;;;5072364;28;20016;-78
2022/12/24 04:58:36;;;;;;;5.35;4.05;;;7.40;99.90;;;;;;5072756;28;20091;-77
2022/12/24 05:01:12;;;;;;;4.82;3.97;;;7.30;99.90;;;;;;5072751;28;20100;-78
2022/12/24 05:03:38;;;;;;;5.70;4.20;;;7.10;99.90;;;;;;5080136;28;20039;-78
2022/12/24 05:06:05;;;;;;;5.03;3.35;;;7.20;99.90;;;;;;5092957;28;20477;-78
2022/12/24 05:08:31;;;;;;;4.30;3.60;;;7.20;99.90;;;;;;5092818;28;20031;-78
2022/12/24 05:10:58;;;;;;;6.10;3.70;;;7.20;99.90;;;;;;5092312;28;20024;-78
2022/12/24 05:13:24;;;;;;;4.43;3.38;;;7.30;99.90;;;;;;5092607;28;20043;-78
2022/12/24 05:15:50;;;;;;;4.53;3.50;;;7.20;99.90;;;;;;5092788;28;20020;-78
2022/12/24 05:18:16;;;;;;;4.78;3.35;;;7.20;99.90;;;;;;5092661;28;20489;-78
2022/12/24 05:20:42;;;;;;;4.43;3.40;;;7.30;99.90;;;;;;5092728;28;20055;-78
2022/12/24 05:28:42;;;;;;;4.82;3.53;;;7.10;99.90;;;;;;5071954;28;20063;-78
2022/12/24 05:31:08;;;;;;;4.05;3.47;;;7.20;99.90;;;;;;5072369;28;20032;-78
2022/12/24 05:33:33;;;;;;;4.47;3.90;;;7.20;99.90;;;;;;5072294;28;20027;-78
2022/12/24 05:35:59;;;;;;;4.40;3.50;;;7.30;99.90;;;;;;5071614;28;20102;-78
2022/12/24 05:38:25;;;;;;;4.53;3.58;;;7.20;99.90;;;;;;5071958;28;20025;-78
2022/12/24 05:40:50;;;;;;;4.20;3.40;;;7.20;99.90;;;;;;5071851;28;20078;-78
2022/12/24 05:43:16;;;;;;;4.53;3.53;;;7.20;99.90;;;;;;5072149;28;20521;-77
2022/12/24 05:45:42;;;;;;;5.25;3.58;;;7.10;99.90;;;;;;5071856;28;20020;-78
2022/12/24 05:48:07;;;;;;;4.60;3.30;;;7.00;99.90;;;;;;5072001;28;20485;-77
2022/12/24 05:50:35;;;;;;;4.90;3.70;;;7.00;99.90;;;;;;5072194;28;20025;-78
2022/12/24 05:53:01;;;;;;;5.50;3.65;;;7.00;99.90;;;;;;5072021;28;20025;-78
2022/12/24 05:55:26;;;;;;;5.22;3.85;;;6.90;99.90;;;;;;5071914;28;20024;-78
2022/12/24 05:57:52;;;;;;;4.15;3.28;;;7.00;99.90;;;;;;5072013;28;20025;-78
2022/12/24 06:00:18;;;;;;;5.07;3.53;;;7.00;99.90;;;;;;5072128;28;20021;-78
2022/12/24 06:02:44;;;;;;;4.70;3.53;;;6.90;99.90;;;;;;5071829;28;20040;-78
2022/12/24 06:05:09;;;;;;;4.07;3.60;;;6.90;99.90;;;;;;5092262;28;20016;-78
2022/12/24 06:07:35;;;;;;;3.92;3.45;;;7.10;99.90;;;;;;5092115;28;20157;-78
2022/12/24 06:10:01;;;;;;;5.80;3.40;;;7.00;99.90;;;;;;5091932;28;20024;-78
2022/12/24 06:12:27;;;;;;;5.57;3.60;;;7.00;99.90;;;;;;5091705;28;20533;-78
2022/12/24 06:14:52;;;;;;;4.45;3.30;;;6.80;99.90;;;;;;5091926;28;20546;-78
2022/12/24 06:17:18;;;;;;;5.13;3.70;;;6.80;99.90;;;;;;5092094;28;20024;-78
2022/12/24 06:19:44;;;;;;;4.50;3.40;;;7.00;99.90;;;;;;5091717;28;20020;-78
2022/12/24 06:22:09;;;;;;;5.22;3.40;;;6.90;99.90;;;;;;5080310;28;20025;-78
2022/12/24 06:24:35;;;;;;;4.30;3.88;;;6.90;99.90;;;;;;5071624;28;20024;-78
2022/12/24 06:27:01;;;;;;;4.25;3.40;;;6.80;99.90;;;;;;5071241;28;20060;-78
2022/12/24 06:29:26;;;;;;;4.07;3.22;;;6.80;99.90;;;;;;5071805;28;20473;-78
2022/12/24 06:31:52;;;;;;;4.45;3.38;;;6.90;99.90;;;;;;5071622;28;20024;-78
2022/12/24 06:34:18;;;;;;;3.67;3.13;;;6.70;99.90;;;;;;5071469;28;20024;-78
2022/12/24 06:36:43;;;;;;;3.33;3.03;;;6.80;99.90;;;;;;5071563;28;20048;-78
2022/12/24 06:39:09;;;;;;;4.35;3.60;;;6.80;99.90;;;;;;5071595;28;20174;-78
2022/12/24 06:41:35;;;;;;;5.03;3.67;;;6.80;99.90;;;;;;5071171;28;20525;-78
2022/12/24 06:44:00;;;;;;;4.50;3.55;;;6.90;99.90;;;;;;5071868;28;20501;-78
2022/12/24 06:46:26;;;;;;;4.43;3.20;;;6.90;99.90;;;;;;5071786;28;20024;-78
2022/12/24 06:48:53;;;;;;;4.65;3.88;;;6.80;99.90;;;;;;5089935;28;20029;-78
2022/12/24 06:51:20;;;;;;;4.97;4.07;;;6.70;99.90;;;;;;5075234;28;20044;-78
2022/12/24 06:53:49;;;;;;;4.43;3.22;;;6.70;99.90;;;;;;5074996;28;20020;-78
2022/12/24 06:56:15;;;;;;;4.53;3.58;;;6.70;99.90;;;;;;5075024;28;20070;-78
2022/12/24 06:58:41;;;;;;;3.75;3.13;;;6.70;99.90;;;;;;5075290;28;20025;-78
2022/12/24 07:01:08;;;;;;;5.38;3.42;;;6.70;99.90;;;;;;5074978;28;20532;-78
2022/12/24 07:03:34;;;;;;;5.22;3.47;;;6.60;99.90;;;;;;5082172;28;20024;-78
2022/12/24 07:06:00;;;;;;;5.35;3.72;;;6.70;99.90;;;;;;5095036;28;20024;-78
2022/12/24 07:08:27;;;;;;;4.95;3.85;;;6.60;99.90;;;;;;5095024;28;20024;-78
2022/12/24 07:10:52;;;;;;;4.55;3.83;;;6.60;99.90;;;;;;5094984;28;20499;-77
2022/12/24 07:13:18;;;;;;;5.18;3.72;;;6.70;99.90;;;;;;5095041;28;20032;-78
2022/12/24 07:15:44;;;;;;;5.10;4.07;;;6.70;99.90;;;;;;5095077;28;20036;-78
2022/12/24 07:18:11;;;;;;;5.43;4.15;;;6.60;99.90;;;;;;5094973;28;20032;-78
2022/12/24 07:20:37;;;;;;;8.00;4.30;;;6.70;99.90;;;;;;5095012;28;20024;-78
2022/12/24 07:23:03;;;;;;;3.80;3.47;;;6.70;99.90;;;;;;5075591;28;20055;-78
2022/12/24 07:25:29;;;;;;;4.55;3.85;;;6.60;99.90;;;;;;5074671;28;20024;-78
2022/12/24 07:27:55;;;;;;;5.30;3.53;;;6.60;99.90;;;;;;5074160;28;20044;-78
2022/12/24 07:30:21;;;;;;;4.43;3.70;;;6.60;99.90;;;;;;5074448;28;20024;-78
2022/12/24 07:32:47;;;;;;;5.03;4.00;;;6.60;99.90;;;;;;5073033;28;20028;-78
2022/12/24 07:35:12;;;;;;;5.13;3.67;;;6.60;99.90;;;;;;5074427;28;20025;-78
2022/12/24 07:37:38;;;;;;;4.82;3.22;;;6.60;99.90;;;;;;5074152;28;20029;-78
2022/12/24 07:40:06;;;;;;;4.18;3.55;;;6.70;99.90;;;;;;5074249;28;20021;-78
2022/12/24 07:42:32;;;;;;;5.28;3.83;;;6.60;99.90;;;;;;5074070;28;20031;-78
2022/12/24 07:44:58;;;;;;;5.22;3.70;;;6.60;99.90;;;;;;5074307;28;20020;-78
2022/12/24 07:47:24;;;;;;;5.43;3.50;;;6.70;99.90;;;;;;5074245;28;20031;-77
2022/12/24 07:49:49;;;;;;;4.80;3.70;;;6.60;99.90;;;;;;5074411;28;20465;-78
2022/12/24 07:52:15;;;;;;;4.10;3.03;;;6.70;99.90;;;;;;5073590;28;20024;-78
2022/12/24 07:54:41;;;;;;;4.20;3.58;;;6.70;99.90;;;;;;5074162;28;20489;-78
2022/12/24 07:57:07;;;;;;;4.80;4.00;;;6.90;99.90;;;;;;5073700;28;20037;-77
2022/12/24 07:59:32;;;;;;;4.63;3.85;;;7.00;99.90;;;;;;5073304;28;20397;-77
2022/12/24 08:01:58;;;;;;;3.83;3.38;;;7.10;99.90;;;;;;5073901;28;20074;-78
2022/12/24 08:04:24;;;;;;;5.30;3.97;;;7.00;99.90;;;;;;5087815;28;20020;-78
2022/12/24 08:06:49;;;;;;;4.32;3.47;;;7.00;99.90;;;;;;5093661;28;20077;-78
2022/12/24 08:09:15;;;;;;;4.78;3.60;;;7.00;99.90;;;;;;5094102;28;20572;-78
2022/12/24 08:11:41;;;;;;;5.78;4.00;;;7.00;99.90;;;;;;5093447;28;20031;-77
2022/12/24 08:14:07;;;;;;;4.68;3.45;;;7.10;99.90;;;;;;5094064;28;20020;-78
2022/12/24 08:16:33;;;;;;;4.63;3.50;;;7.10;99.90;;;;;;5093858;28;20036;-78
2022/12/24 08:18:58;;;;;;;3.97;3.28;;;7.00;99.90;;;;;;5093609;28;20480;-78
2022/12/24 08:21:24;;;;;;;4.53;3.75;;;7.10;99.90;;;;;;5088434;28;20558;-78
2022/12/24 08:23:50;;;;;;;4.60;3.60;;;7.20;99.90;;;;;;5073416;28;20036;-78
2022/12/24 08:26:16;;;;;;;6.18;3.95;;;7.30;99.90;;;;;;5073330;28;20151;-78
2022/12/24 08:28:42;;;;;;;4.72;3.90;;;7.20;99.90;;;;;;5073243;28;20044;-78
2022/12/24 08:31:08;;;;;;;5.32;4.15;;;7.30;99.90;;;;;;5073189;28;20029;-78
2022/12/24 08:33:34;;;;;;;5.85;4.32;;;7.50;99.90;;;;;;5073208;28;20016;-78
2022/12/24 08:36:01;;;;;;;6.00;4.15;;;7.50;99.90;;;;;;5073042;28;20103;-78
2022/12/24 08:38:27;;;;;;;5.80;4.30;;;7.60;99.90;;;;;;5073050;28;20029;-78
2022/12/24 08:40:54;;;;;;;6.63;4.80;;;7.70;99.90;;;;;;5072838;28;20032;-78
2022/12/24 08:43:20;;;;;;;6.55;4.80;;;7.80;99.90;;;;;;5072819;28;20024;-78
2022/12/24 08:45:48;;;;;;;5.60;4.68;;;7.80;99.90;;;;;;5072812;28;20051;-78
2022/12/24 08:48:13;;;;;;;5.43;4.65;;;7.90;99.90;;;;;;5072568;28;20024;-78
2022/12/24 08:50:40;;;;;;;6.57;4.47;;;7.90;99.90;;;;;;5073166;28;20028;-78
2022/12/24 08:53:06;;;;;;;6.80;5.05;;;7.90;99.90;;;;;;5072709;28;20096;-78
2022/12/24 08:55:32;;;;;;;6.78;4.40;;;7.90;99.90;;;;;;5072774;28;20028;-78
2022/12/24 08:57:59;;;;;;;5.57;4.63;;;8.00;99.90;;;;;;5072816;28;20545;-78
2022/12/24 09:00:24;;;;;;;8.23;5.28;;;8.00;99.90;;;;;;5072992;28;20032;-78
2022/12/24 09:02:50;;;;;;;6.75;5.30;;;8.20;99.90;;;;;;5073450;28;20043;-78
2022/12/24 09:05:16;;;;;;;7.45;5.20;;;8.40;99.90;;;;;;5093281;28;20032;-78
2022/12/24 09:07:43;;;;;;;6.18;4.55;;;8.80;99.90;;;;;;5092783;28;20024;-78
2022/12/24 09:10:09;;;;;;;8.15;4.82;;;9.30;99.90;;;;;;5092485;28;20032;-78
2022/12/24 09:12:35;;;;;;;7.50;5.22;;;9.70;99.90;;;;;;5092087;28;20491;-78
2022/12/24 09:15:02;;;;;;;8.05;5.85;;;10.00;99.90;;;;;;5092757;28;20106;-78
2022/12/24 09:17:28;;;;;;;5.85;4.90;;;10.30;99.90;;;;;;5092695;28;20038;-78
2022/12/24 09:19:53;;;;;;;6.63;5.03;;;10.30;99.90;;;;;;5092977;28;20469;-78
2022/12/24 09:22:19;;;;;;;6.00;4.88;;;10.30;99.90;;;;;;5079702;28;20024;-78
2022/12/24 09:24:45;;;;;;;6.40;4.90;;;10.30;99.90;;;;;;5072754;28;20103;-78
2022/12/24 09:27:11;;;;;;;6.25;4.57;;;10.10;99.90;;;;;;5072024;28;20124;-78
2022/12/24 09:29:39;;;;;;;5.82;4.55;;;9.80;99.90;;;;;;5072305;28;20056;-78
2022/12/24 09:32:05;;;;;;;6.65;5.13;;;9.80;99.90;;;;;;5072164;28;20070;-78
2022/12/24 09:34:31;;;;;;;7.38;5.43;;;9.50;99.90;;;;;;5072743;28;20112;-78
2022/12/24 09:36:58;;;;;;;7.53;4.72;;;9.60;99.90;;;;;;5072174;28;20060;-78
2022/12/24 09:39:24;;;;;;;5.15;4.00;;;9.60;99.90;;;;;;5072322;28;20016;-78
2022/12/24 09:41:59;;;;;;;5.53;4.78;;;9.70;99.90;;;;;;5071920;28;20551;-78
2022/12/24 09:44:37;;;;;;;6.63;4.75;;;9.90;99.90;;;;;;5072556;28;20028;-78
2022/12/24 09:47:13;;;;;;;6.40;4.75;;;10.00;99.90;;;;;;5071767;28;20032;-78
2022/12/24 09:49:43;;;;;;;6.75;4.70;;;10.10;99.90;;;;;;5072221;28;20060;-78
2022/12/24 09:52:13;;;;;;;6.43;4.57;;;9.90;99.90;;;;;;5071989;28;20078;-78
2022/12/24 09:54:45;;;;;;;5.32;4.57;;;9.90;99.90;;;;;;5072177;28;20024;-78
2022/12/24 09:57:27;;;;;;;5.57;4.38;;;10.10;99.90;;;;;;5071938;28;20016;-78
2022/12/24 09:59:54;;;;;;;5.40;4.22;;;10.40;99.90;;;;;;5072535;28;20043;-78
2022/12/24 10:02:20;;;;;;;7.70;4.90;;;10.60;99.90;;;;;;5072000;28;20052;-78
2022/12/24 10:04:47;;;;;;;6.30;4.50;;;10.80;99.90;;;;;;5089256;28;20444;-78
2022/12/24 10:08:01;;;;;;;5.72;4.47;;;10.80;99.90;;;;;;5092150;28;20051;-78
2022/12/24 10:10:51;;;;;;;5.13;4.35;;;10.90;99.90;;;;;;5078363;28;20070;-78
2022/12/24 10:13:32;;;;;;;7.00;4.68;;;10.90;99.90;;;;;;5092197;28;20492;-78
2022/12/24 10:16:54;;;;;;;7.63;4.37;;;11.00;99.90;;;;;;5092209;28;20120;-78
2022/12/24 10:19:23;;;;;;;5.03;4.20;;;11.10;99.90;;;;;;5029613;28;20275;-78
2022/12/24 10:21:59;;;;;;;5.03;4.13;;;11.30;99.90;;;;;;5020888;28;20033;-78
2022/12/24 10:24:38;;;;;;;6.25;4.60;;;11.40;99.90;;;;;;5013416;28;20104;-78
2022/12/24 10:27:13;;;;;;;5.35;4.60;;;11.40;99.90;;;;;;5013272;28;20193;-78
2022/12/24 10:29:43;;;;;;;5.03;4.05;;;11.40;99.90;;;;;;5013306;28;20041;-78
2022/12/24 10:32:09;;;;;;;5.53;4.22;;;11.50;99.90;;;;;;5013279;28;20026;-78
2022/12/24 10:34:40;;;;;;;5.25;3.72;;;11.60;99.90;;;;;;5013693;28;20492;-78
2022/12/24 10:37:07;;;;;;;;;;;11.70;99.90;;;;;;5013634;28;20030;-78
2022/12/24 10:39:33;;;;;;;4.63;4.10;;;11.80;99.90;;;;;;5013417;28;19968;-78
2022/12/24 10:42:00;;;;;;;5.22;3.70;;;11.90;99.90;;;;;;5012944;28;20500;-78
2022/12/24 10:44:29;;;;;;;4.30;3.80;;;11.90;99.90;;;;;;5013178;28;20042;-78
2022/12/24 10:46:55;;;;;;;5.18;3.67;;;12.00;99.90;;;;;;5013191;28;20585;-78
2022/12/24 10:49:43;;;;;;;3.72;3.08;;;12.10;99.90;;;;;;5027010;28;20068;-78
2022/12/24 10:52:16;;;;;;;4.43;3.60;;;12.20;99.90;;;;;;5055243;28;20013;-79
2022/12/24 10:55:05;;;;;;;5.22;3.67;;;12.30;99.90;;;;;;5055256;28;20025;-78
2022/12/24 10:57:31;;;;;;;4.20;3.13;;;12.20;99.90;;;;;;5056548;28;20087;-78
2022/12/24 10:59:57;;;;;;;4.63;3.75;;;12.40;99.90;;;;;;5074845;28;20047;-78
2022/12/24 11:02:35;;;;;;;5.35;3.70;;;12.50;99.90;;;;;;5075225;28;20477;-78
2022/12/24 11:05:04;;;;;;;4.65;3.42;;;12.80;99.90;;;;;;5094168;28;20065;-78
2022/12/24 11:07:31;;;;;;;4.85;3.45;;;12.90;99.90;;;;;;5095324;28;20020;-79
2022/12/24 11:09:59;;;;;;;4.40;3.50;;;12.80;99.90;;;;;;5095124;28;20082;-78
2022/12/24 11:12:46;;;;;;;5.43;3.35;;;12.80;99.90;;;;;;5094634;28;20023;-78
2022/12/24 11:15:30;;;;;;;5.03;3.60;;;12.90;99.90;;;;;;5094961;28;20077;-78
2022/12/24 11:18:11;;;;;;;5.63;3.47;;;13.00;99.90;;;;;;5095345;28;20020;-78
2022/12/24 11:20:37;;;;;;;3.40;3.10;;;13.00;99.90;;;;;;5095073;28;20032;-78
2022/12/24 11:23:03;;;;;;;4.25;3.50;;;12.80;99.90;;;;;;5075849;28;20035;-78
2022/12/24 11:25:37;;;;;;;5.75;4.38;;;12.90;99.90;;;;;;5074508;28;20100;-79
2022/12/24 11:28:24;;;;;;;4.40;3.75;;;12.90;99.90;;;;;;5073964;28;20074;-78
2022/12/24 11:31:25;;;;;;;6.22;4.50;;;13.00;99.90;;;;;;5074731;28;20021;-78
2022/12/24 11:33:52;;;;;;;6.35;4.43;;;13.20;99.90;;;;;;5051085;28;20021;-78
2022/12/24 11:36:22;;;;;;;5.03;4.40;;;13.30;99.90;;;;;;5051931;28;20037;-79
2022/12/24 11:38:56;;;;;;;4.63;4.18;;;13.40;99.90;;;;;;5052109;28;20028;-78
2022/12/24 11:41:22;;;;;;;5.10;3.95;;;13.40;99.90;;;;;;5051622;28;20040;-78
2022/12/24 11:43:50;;;;;;;5.78;4.32;;;13.40;99.90;;;;;;5051934;28;20083;-78
2022/12/24 11:46:37;;;;;;;5.22;4.28;;;13.40;99.90;;;;;;5051772;28;20028;-78
2022/12/24 11:49:12;;;;;;;5.03;4.07;;;13.40;99.90;;;;;;5051801;28;20144;-78
2022/12/24 11:51:47;;;;;;;5.30;3.80;;;13.40;99.90;;;;;;5051538;28;20033;-78
2022/12/24 11:54:26;;;;;;;4.88;4.05;;;13.40;99.90;;;;;;5051785;28;20037;-78
2022/12/24 11:56:55;;;;;;;6.55;4.43;;;14.00;99.90;;;;;;5051033;28;20044;-78
2022/12/24 11:59:38;;;;;;;8.10;4.13;;;14.20;99.90;;;;;;5051752;28;20020;-79
2022/12/24 12:02:23;;;;;;;6.38;4.45;;;14.40;99.90;;;;;;5051312;28;20041;-79
2022/12/24 12:04:58;;;;;;;6.45;4.28;;;14.40;99.90;;;;;;5051513;28;20028;-78
2022/12/24 12:07:29;;;;;;;4.70;4.10;;;14.20;99.90;;;;;;5058761;28;20094;-78
2022/12/24 12:10:27;;;;;;;7.67;4.63;;;14.30;99.90;;;;;;5073958;28;20024;-78
2022/12/24 12:13:17;;;;;;;5.05;3.78;;;14.10;99.90;;;;;;5050403;28;20267;-78
2022/12/24 12:16:20;;;;;;;4.47;3.90;;;14.50;99.90;;;;;;5040537;28;20179;-79
2022/12/24 12:19:03;;;;;;;6.90;3.80;;;14.40;99.90;;;;;;5051399;28;20105;-78
2022/12/24 12:21:41;;;;;;;4.45;3.60;;;15.00;99.90;;;;;;5045158;28;20054;-78
2022/12/24 12:24:13;;;;;;;5.82;3.97;;;15.20;99.90;;;;;;5031338;28;20017;-79
2022/12/24 12:26:41;;;;;;;4.63;3.40;;;15.20;99.90;;;;;;5030423;28;20029;-78
2022/12/24 12:29:36;;;;;;;5.80;3.15;;;15.20;99.90;;;;;;5031217;28;20113;-79
2022/12/24 12:32:11;;;;;;;4.82;2.92;;;15.10;99.90;;;;;;5027054;28;20112;-79
2022/12/24 12:34:44;;;;;;;5.50;3.45;;;15.40;99.90;;;;;;5031150;28;20134;-79
2022/12/24 12:37:50;;;;;;;3.60;3.15;;;15.80;99.90;;;;;;5030867;28;20017;-78
2022/12/24 12:40:16;;;;;;;4.13;2.90;;;15.80;99.90;;;;;;4991416;28;20039;-79
2022/12/24 12:43:15;;;;;;;3.65;2.90;;;15.50;99.90;;;;;;4991050;28;20121;-79
2022/12/24 12:46:02;;;;;;;5.38;3.40;;;15.60;99.90;;;;;;4991373;28;20037;-79
2022/12/24 12:49:05;;;;;;;4.18;2.90;;;15.70;99.90;;;;;;4991480;28;20114;-78
2022/12/24 12:52:11;;;;;;;3.40;2.53;;;16.10;99.90;;;;;;4991317;28;20184;-79
2022/12/24 12:54:48;;;;;;;3.58;2.40;;;15.70;99.90;;;;;;4990668;28;20078;-79
2022/12/24 12:57:20;;;;;;;3.95;2.38;;;15.70;99.90;;;;;;4996584;28;20038;-78
2022/12/24 12:59:56;;;;;;;2.53;2.33;;;16.00;99.90;;;;;;5011123;28;20046;-79
2022/12/24 13:02:30;;;;;;;2.53;1.83;;;15.80;99.90;;;;;;5010549;28;20046;-78
2022/12/24 13:05:17;;;;;;;2.53;2.13;;;15.70;99.90;;;;;;5028816;28;20022;-79
2022/12/24 13:08:01;;;;;;;2.42;2.22;;;16.30;99.90;;;;;;5030499;28;20029;-78
2022/12/24 13:11:25;;;;;;;3.00;2.28;;;16.40;99.90;;;;;;5030290;28;20039;-79
2022/12/24 13:14:18;;;;;;;1.67;1.58;;;16.50;99.90;;;;;;5013246;28;20044;-78
2022/12/24 13:16:52;;;;;;;2.47;1.88;;;16.20;99.90;;;;;;5086929;28;20036;-78
2022/12/24 13:19:32;;;;;;;2.00;1.90;;;16.30;99.90;;;;;;5093113;28;20082;-78
2022/12/24 13:21:57;;;;;;;2.22;1.85;;;16.10;99.90;;;;;;5082822;28;20035;-78